18:52
Airports
History
Links
Donate
Help keep this website running!
PayPal
Bitcoin
This page is community maintained. The information is intended for PC simulator navigation or reference.
Always use approved charts for navigation.
MUGT
MARIANA GRAJALES
MARIANA GRAJALES (MUGT)
Guantanamo, Cuba
(C)
Lat/Lng:20° 5' 7.51" N / 75° 9' 29.98" W
20.08542 / -75.158328
Elevation:56'ft / 17mMSL
ID / ICAO:MUGT
Runways:1
Longest:17-35
Asphalt 2,366m / 7,761ft
Controlled:Yes
METAR14:51 GMT 2016-10-11
Altimeter: 29.91
Visibility: 6.2 statute miles
Wind: 3 knots (from 270°)
Temp: 29°c / 84°f
Humidity: 70.1%

METAR: MUGT 111451Z 27003KT 200V360 9999 FEW025 SCT200 29/23 Q1013

(Powered by phpweather)
Airport Radio Frequencies
Tower: 122.6
Nearby VORs <50NM
Nearby NDBs
Runway 17 / 35
Dimensions:2365.7 x 45.7m 7761' x 150'ft
Surface:Asphalt
Edge Lights:Low intensity
Runway 17 [A]Runway 35 [B]
Heading:165°TH 345°TH
Lat:
Lng:
20° 5' 44.65"N
75° 9' 40.05"W
20° 4' 30.37"N
75° 9' 19.91"W
User Notes and Comments
20° 5' 7.51" N / 75° 9' 29.98" W
Distance To
Airport ID:
Nearby Airports
(C) Guantanamo Bay Ns 12.8 NM
MUGM SSW 194°
(C) ORESTES ACOSTA 42.2 NM
MUMO ( WX ) NNE 21°
(C) Santiago de Cuba Antonio Maceo Intl 44.6 NM
MUCU ( WX ) W 260°
(C) Baracoa Gustavo Rizo 46.5 NM
MUBA ( WX ) ENE 65°
(C) FRANK PAIS INTL 89.2 NM
MUHG WNW 302°
(C) CARLOS MANUEL DE CESPEDES 97.2 NM
MUBY ( WX ) WNW 282°
(C) Matthew Town 114.4 NM
MYIG ENE 57°
VFR Chart
Flight Planning at SkyVector.com